sensor_id;sensor_type;location;lat;lon;timestamp;temperature;humidity
35894;DHT22;21994;48.204;16.516;2023-07-13T00:01:28;19.90;99.90
35894;DHT22;21994;48.204;16.516;2023-07-13T00:03:54;19.90;99.90
35894;DHT22;21994;48.204;16.516;2023-07-13T00:06:21;20.10;99.90
35894;DHT22;21994;48.204;16.516;2023-07-13T00:08:47;20.00;99.90
35894;DHT22;21994;48.204;16.516;2023-07-13T00:11:14;20.00;99.90
35894;DHT22;21994;48.204;16.516;2023-07-13T00:13:41;19.90;99.90
35894;DHT22;21994;48.204;16.516;2023-07-13T00:16:08;19.90;99.90
35894;DHT22;21994;48.204;16.516;2023-07-13T00:18:35;19.90;99.90
35894;DHT22;21994;48.204;16.516;2023-07-13T00:21:01;19.90;99.90
35894;DHT22;21994;48.204;16.516;2023-07-13T00:23:31;19.90;99.90
35894;DHT22;21994;48.204;16.516;2023-07-13T00:26:02;20.00;99.90
35894;DHT22;21994;48.204;16.516;2023-07-13T00:28:28;20.00;99.90
35894;DHT22;21994;48.204;16.516;2023-07-13T00:30:54;19.90;99.90
35894;DHT22;21994;48.204;16.516;2023-07-13T00:33:20;19.90;99.90
35894;DHT22;21994;48.204;16.516;2023-07-13T00:35:48;19.90;99.90
35894;DHT22;21994;48.204;16.516;2023-07-13T00:38:15;19.90;99.90
35894;DHT22;21994;48.204;16.516;2023-07-13T00:40:41;19.90;99.90
35894;DHT22;21994;48.204;16.516;2023-07-13T00:43:14;19.80;99.90
35894;DHT22;21994;48.204;16.516;2023-07-13T00:48:15;19.70;99.90
35894;DHT22;21994;48.204;16.516;2023-07-13T00:50:46;19.80;99.90
35894;DHT22;21994;48.204;16.516;2023-07-13T00:53:15;19.70;99.90
35894;DHT22;21994;48.204;16.516;2023-07-13T00:55:41;19.60;99.90
35894;DHT22;21994;48.204;16.516;2023-07-13T00:58:07;19.60;99.90
35894;DHT22;21994;48.204;16.516;2023-07-13T01:00:34;19.60;99.90
35894;DHT22;21994;48.204;16.516;2023-07-13T01:03:01;19.50;99.90
35894;DHT22;21994;48.204;16.516;2023-07-13T01:05:30;19.50;99.90
35894;DHT22;21994;48.204;16.516;2023-07-13T01:08:00;19.50;99.90
35894;DHT22;21994;48.204;16.516;2023-07-13T01:10:36;19.40;99.90
35894;DHT22;21994;48.204;16.516;2023-07-13T01:13:06;19.40;99.90
35894;DHT22;21994;48.204;16.516;2023-07-13T01:15:33;19.40;99.90
35894;DHT22;21994;48.204;16.516;2023-07-13T01:18:14;19.40;99.90
35894;DHT22;21994;48.204;16.516;2023-07-13T01:20:52;19.40;99.90
35894;DHT22;21994;48.204;16.516;2023-07-13T01:23:19;19.40;99.90
35894;DHT22;21994;48.204;16.516;2023-07-13T01:25:45;19.40;99.90
35894;DHT22;21994;48.204;16.516;2023-07-13T01:28:11;19.40;99.90
35894;DHT22;21994;48.204;16.516;2023-07-13T01:30:38;19.40;99.90
35894;DHT22;21994;48.204;16.516;2023-07-13T01:33:06;19.30;99.90
35894;DHT22;21994;48.204;16.516;2023-07-13T01:35:33;19.20;99.90
35894;DHT22;21994;48.204;16.516;2023-07-13T01:37:59;19.10;99.90
35894;DHT22;21994;48.204;16.516;2023-07-13T01:40:26;19.00;99.90
35894;DHT22;21994;48.204;16.516;2023-07-13T01:42:53;19.00;99.90
35894;DHT22;21994;48.204;16.516;2023-07-13T01:45:19;18.80;99.90
35894;DHT22;21994;48.204;16.516;2023-07-13T01:47:44;18.80;99.90
35894;DHT22;21994;48.204;16.516;2023-07-13T01:50:10;18.80;99.90
35894;DHT22;21994;48.204;16.516;2023-07-13T01:52:36;18.80;99.90
35894;DHT22;21994;48.204;16.516;2023-07-13T01:55:02;18.80;99.90
35894;DHT22;21994;48.204;16.516;2023-07-13T01:57:28;18.80;99.90
35894;DHT22;21994;48.204;16.516;2023-07-13T01:59:53;18.80;99.90
35894;DHT22;21994;48.204;16.516;2023-07-13T02:02:19;18.80;99.90
35894;DHT22;21994;48.204;16.516;2023-07-13T02:04:45;18.90;99.90
35894;DHT22;21994;48.204;16.516;2023-07-13T02:07:11;18.90;99.90
35894;DHT22;21994;48.204;16.516;2023-07-13T02:09:37;19.10;99.90
35894;DHT22;21994;48.204;16.516;2023-07-13T02:12:02;19.10;99.90
35894;DHT22;21994;48.204;16.516;2023-07-13T02:14:28;19.20;99.90
35894;DHT22;21994;48.204;16.516;2023-07-13T02:16:54;19.20;99.90
35894;DHT22;21994;48.204;16.516;2023-07-13T02:19:20;19.20;99.90
35894;DHT22;21994;48.204;16.516;2023-07-13T02:21:47;19.20;99.90
35894;DHT22;21994;48.204;16.516;2023-07-13T02:24:13;19.20;99.90
35894;DHT22;21994;48.204;16.516;2023-07-13T02:26:43;19.10;99.90
35894;DHT22;21994;48.204;16.516;2023-07-13T02:29:09;19.10;99.90
35894;DHT22;21994;48.204;16.516;2023-07-13T02:31:35;19.40;99.90
35894;DHT22;21994;48.204;16.516;2023-07-13T02:34:01;19.40;99.90
35894;DHT22;21994;48.204;16.516;2023-07-13T02:36:28;19.70;99.90
35894;DHT22;21994;48.204;16.516;2023-07-13T02:38:54;20.00;99.90
35894;DHT22;21994;48.204;16.516;2023-07-13T02:41:19;20.10;99.90
35894;DHT22;21994;48.204;16.516;2023-07-13T02:43:46;20.20;99.90
35894;DHT22;21994;48.204;16.516;2023-07-13T02:46:11;20.30;99.90
35894;DHT22;21994;48.204;16.516;2023-07-13T02:48:38;20.20;99.90
35894;DHT22;21994;48.204;16.516;2023-07-13T02:51:13;20.30;99.90
35894;DHT22;21994;48.204;16.516;2023-07-13T02:53:39;20.30;99.90
35894;DHT22;21994;48.204;16.516;2023-07-13T02:56:05;20.50;99.90
35894;DHT22;21994;48.204;16.516;2023-07-13T02:58:31;20.80;99.90
35894;DHT22;21994;48.204;16.516;2023-07-13T03:00:57;21.20;99.90
35894;DHT22;21994;48.204;16.516;2023-07-13T03:03:23;21.40;99.90
35894;DHT22;21994;48.204;16.516;2023-07-13T03:05:57;21.50;99.90
35894;DHT22;21994;48.204;16.516;2023-07-13T03:08:25;21.50;99.90
35894;DHT22;21994;48.204;16.516;2023-07-13T03:11:01;21.60;99.90
35894;DHT22;21994;48.204;16.516;2023-07-13T03:13:31;21.50;99.90
35894;DHT22;21994;48.204;16.516;2023-07-13T03:15:57;21.40;99.90
35894;DHT22;21994;48.204;16.516;2023-07-13T03:18:22;21.30;99.90
35894;DHT22;21994;48.204;16.516;2023-07-13T03:20:52;21.20;99.90
35894;DHT22;21994;48.204;16.516;2023-07-13T03:23:18;21.00;99.90
35894;DHT22;21994;48.204;16.516;2023-07-13T03:25:44;20.80;99.90
35894;DHT22;21994;48.204;16.516;2023-07-13T03:28:11;20.60;99.90
35894;DHT22;21994;48.204;16.516;2023-07-13T03:30:37;20.40;99.90
35894;DHT22;21994;48.204;16.516;2023-07-13T03:33:03;20.30;99.90
35894;DHT22;21994;48.204;16.516;2023-07-13T03:35:29;20.20;99.90
35894;DHT22;21994;48.204;16.516;2023-07-13T03:37:55;20.00;99.90
35894;DHT22;21994;48.204;16.516;2023-07-13T03:40:20;20.00;99.90
35894;DHT22;21994;48.204;16.516;2023-07-13T03:42:46;19.90;99.90
35894;DHT22;21994;48.204;16.516;2023-07-13T03:45:12;19.80;99.90
35894;DHT22;21994;48.204;16.516;2023-07-13T03:47:38;19.70;99.90
35894;DHT22;21994;48.204;16.516;2023-07-13T03:50:04;19.70;99.90
35894;DHT22;21994;48.204;16.516;2023-07-13T03:52:30;19.60;99.90
35894;DHT22;21994;48.204;16.516;2023-07-13T03:54:56;19.40;99.90
35894;DHT22;21994;48.204;16.516;2023-07-13T03:57:22;19.40;99.90
35894;DHT22;21994;48.204;16.516;2023-07-13T03:59:48;19.30;99.90
35894;DHT22;21994;48.204;16.516;2023-07-13T04:02:14;19.20;99.90
35894;DHT22;21994;48.204;16.516;2023-07-13T04:04:40;19.20;99.90
35894;DHT22;21994;48.204;16.516;2023-07-13T04:07:06;19.00;99.90
35894;DHT22;21994;48.204;16.516;2023-07-13T04:09:33;19.00;99.90
35894;DHT22;21994;48.204;16.516;2023-07-13T04:11:59;19.00;99.90
35894;DHT22;21994;48.204;16.516;2023-07-13T04:14:25;18.90;99.90
35894;DHT22;21994;48.204;16.516;2023-07-13T04:16:51;18.80;99.90
35894;DHT22;21994;48.204;16.516;2023-07-13T04:19:17;18.80;99.90
35894;DHT22;21994;48.204;16.516;2023-07-13T04:21:43;18.90;99.90
35894;DHT22;21994;48.204;16.516;2023-07-13T04:24:09;18.90;99.90
35894;DHT22;21994;48.204;16.516;2023-07-13T04:26:35;18.90;99.90
35894;DHT22;21994;48.204;16.516;2023-07-13T04:29:01;18.90;99.90
35894;DHT22;21994;48.204;16.516;2023-07-13T04:31:29;18.80;99.90
35894;DHT22;21994;48.204;16.516;2023-07-13T04:33:55;18.80;99.90
35894;DHT22;21994;48.204;16.516;2023-07-13T04:36:21;18.80;99.90
35894;DHT22;21994;48.204;16.516;2023-07-13T04:38:47;18.90;99.90
35894;DHT22;21994;48.204;16.516;2023-07-13T04:41:14;18.90;99.90
35894;DHT22;21994;48.204;16.516;2023-07-13T04:43:40;18.90;99.90
35894;DHT22;21994;48.204;16.516;2023-07-13T04:46:07;19.00;99.90
35894;DHT22;21994;48.204;16.516;2023-07-13T04:48:34;19.10;99.90
35894;DHT22;21994;48.204;16.516;2023-07-13T04:51:00;19.20;99.90
35894;DHT22;21994;48.204;16.516;2023-07-13T04:53:27;19.10;99.90
35894;DHT22;21994;48.204;16.516;2023-07-13T04:55:53;19.20;99.90
35894;DHT22;21994;48.204;16.516;2023-07-13T04:58:19;19.20;99.90
35894;DHT22;21994;48.204;16.516;2023-07-13T05:00:44;19.20;99.90
35894;DHT22;21994;48.204;16.516;2023-07-13T05:03:10;19.20;99.90
35894;DHT22;21994;48.204;16.516;2023-07-13T05:05:36;19.20;99.90
35894;DHT22;21994;48.204;16.516;2023-07-13T05:08:02;19.30;99.90
35894;DHT22;21994;48.204;16.516;2023-07-13T05:10:28;19.40;99.90
35894;DHT22;21994;48.204;16.516;2023-07-13T05:12:53;19.40;99.90
35894;DHT22;21994;48.204;16.516;2023-07-13T05:15:22;19.40;99.90
35894;DHT22;21994;48.204;16.516;2023-07-13T05:17:49;19.40;99.90
35894;DHT22;21994;48.204;16.516;2023-07-13T05:20:14;19.40;99.90
35894;DHT22;21994;48.204;16.516;2023-07-13T05:22:42;19.40;99.90
35894;DHT22;21994;48.204;16.516;2023-07-13T05:25:08;19.50;99.90
35894;DHT22;21994;48.204;16.516;2023-07-13T05:27:34;19.60;99.90
35894;DHT22;21994;48.204;16.516;2023-07-13T05:30:02;19.60;99.90
35894;DHT22;21994;48.204;16.516;2023-07-13T05:32:28;19.70;99.90
35894;DHT22;21994;48.204;16.516;2023-07-13T05:34:54;19.70;99.90
35894;DHT22;21994;48.204;16.516;2023-07-13T05:37:20;19.60;99.90
35894;DHT22;21994;48.204;16.516;2023-07-13T05:39:45;19.50;99.90
35894;DHT22;21994;48.204;16.516;2023-07-13T05:42:11;19.60;99.90
35894;DHT22;21994;48.204;16.516;2023-07-13T05:44:37;19.50;99.90
35894;DHT22;21994;48.204;16.516;2023-07-13T05:47:03;19.70;99.90
35894;DHT22;21994;48.204;16.516;2023-07-13T05:49:29;19.70;99.90
35894;DHT22;21994;48.204;16.516;2023-07-13T05:51:56;19.80;99.90
35894;DHT22;21994;48.204;16.516;2023-07-13T05:54:22;19.90;99.90
35894;DHT22;21994;48.204;16.516;2023-07-13T05:56:48;19.90;99.90
35894;DHT22;21994;48.204;16.516;2023-07-13T05:59:13;19.90;99.90
35894;DHT22;21994;48.204;16.516;2023-07-13T06:01:39;20.00;99.90
35894;DHT22;21994;48.204;16.516;2023-07-13T06:04:06;20.10;99.90
35894;DHT22;21994;48.204;16.516;2023-07-13T06:06:32;20.10;99.90
35894;DHT22;21994;48.204;16.516;2023-07-13T06:08:58;20.10;99.90
35894;DHT22;21994;48.204;16.516;2023-07-13T06:11:25;20.10;99.90
35894;DHT22;21994;48.204;16.516;2023-07-13T06:13:51;20.10;99.90
35894;DHT22;21994;48.204;16.516;2023-07-13T06:16:17;20.10;99.90
35894;DHT22;21994;48.204;16.516;2023-07-13T06:18:44;20.10;99.90
35894;DHT22;21994;48.204;16.516;2023-07-13T06:21:17;20.20;99.90
35894;DHT22;21994;48.204;16.516;2023-07-13T06:23:45;20.20;99.90
35894;DHT22;21994;48.204;16.516;2023-07-13T06:26:13;20.20;99.90
35894;DHT22;21994;48.204;16.516;2023-07-13T06:28:38;20.20;99.90
35894;DHT22;21994;48.204;16.516;2023-07-13T06:31:06;20.20;99.90
35894;DHT22;21994;48.204;16.516;2023-07-13T06:33:33;20.20;99.90
35894;DHT22;21994;48.204;16.516;2023-07-13T06:35:59;20.20;99.90
35894;DHT22;21994;48.204;16.516;2023-07-13T06:38:25;20.20;99.90
35894;DHT22;21994;48.204;16.516;2023-07-13T06:40:50;20.10;99.90
35894;DHT22;21994;48.204;16.516;2023-07-13T06:43:16;20.20;99.90
35894;DHT22;21994;48.204;16.516;2023-07-13T06:45:45;20.20;99.90
35894;DHT22;21994;48.204;16.516;2023-07-13T06:48:13;20.20;99.90
35894;DHT22;21994;48.204;16.516;2023-07-13T06:50:39;20.20;99.90
35894;DHT22;21994;48.204;16.516;2023-07-13T06:53:06;20.30;99.90
35894;DHT22;21994;48.204;16.516;2023-07-13T06:55:32;20.30;99.90
35894;DHT22;21994;48.204;16.516;2023-07-13T06:57:57;20.30;99.90
35894;DHT22;21994;48.204;16.516;2023-07-13T07:00:23;20.30;99.90
35894;DHT22;21994;48.204;16.516;2023-07-13T07:02:49;20.40;99.90
35894;DHT22;21994;48.204;16.516;2023-07-13T07:05:15;20.60;99.90
35894;DHT22;21994;48.204;16.516;2023-07-13T07:07:41;20.70;99.90
35894;DHT22;21994;48.204;16.516;2023-07-13T07:10:07;20.80;99.90
35894;DHT22;21994;48.204;16.516;2023-07-13T07:12:33;20.80;99.90
35894;DHT22;21994;48.204;16.516;2023-07-13T07:14:59;20.90;99.90
35894;DHT22;21994;48.204;16.516;2023-07-13T07:17:24;21.00;99.90
35894;DHT22;21994;48.204;16.516;2023-07-13T07:19:52;21.20;99.90
35894;DHT22;21994;48.204;16.516;2023-07-13T07:22:19;21.30;99.90
35894;DHT22;21994;48.204;16.516;2023-07-13T07:24:46;21.40;99.90
35894;DHT22;21994;48.204;16.516;2023-07-13T07:27:11;21.50;99.90
35894;DHT22;21994;48.204;16.516;2023-07-13T07:29:37;21.60;99.90
35894;DHT22;21994;48.204;16.516;2023-07-13T07:32:03;21.70;99.90
35894;DHT22;21994;48.204;16.516;2023-07-13T07:34:30;21.80;99.90
35894;DHT22;21994;48.204;16.516;2023-07-13T07:36:58;21.90;99.90
35894;DHT22;21994;48.204;16.516;2023-07-13T07:39:25;21.90;99.90
35894;DHT22;21994;48.204;16.516;2023-07-13T07:41:50;21.90;99.90
35894;DHT22;21994;48.204;16.516;2023-07-13T07:44:16;21.80;99.90
35894;DHT22;21994;48.204;16.516;2023-07-13T07:46:42;21.80;99.90
35894;DHT22;21994;48.204;16.516;2023-07-13T07:49:08;21.80;99.90
35894;DHT22;21994;48.204;16.516;2023-07-13T07:51:34;21.70;99.90
35894;DHT22;21994;48.204;16.516;2023-07-13T07:53:59;21.70;99.90
35894;DHT22;21994;48.204;16.516;2023-07-13T07:56:25;21.80;99.90
35894;DHT22;21994;48.204;16.516;2023-07-13T07:58:51;21.80;99.90
35894;DHT22;21994;48.204;16.516;2023-07-13T08:01:17;21.80;99.90
35894;DHT22;21994;48.204;16.516;2023-07-13T08:03:43;21.70;99.90
35894;DHT22;21994;48.204;16.516;2023-07-13T08:06:08;21.80;99.90
35894;DHT22;21994;48.204;16.516;2023-07-13T08:08:34;21.80;99.90
35894;DHT22;21994;48.204;16.516;2023-07-13T08:11:04;21.90;99.90
35894;DHT22;21994;48.204;16.516;2023-07-13T08:13:31;22.10;99.90
35894;DHT22;21994;48.204;16.516;2023-07-13T08:15:56;22.50;99.90
35894;DHT22;21994;48.204;16.516;2023-07-13T08:18:22;22.90;99.90
35894;DHT22;21994;48.204;16.516;2023-07-13T08:20:48;23.20;99.90
35894;DHT22;21994;48.204;16.516;2023-07-13T08:23:14;23.50;99.90
35894;DHT22;21994;48.204;16.516;2023-07-13T08:25:42;23.70;99.90
35894;DHT22;21994;48.204;16.516;2023-07-13T08:28:08;24.10;99.90
35894;DHT22;21994;48.204;16.516;2023-07-13T08:30:34;24.20;99.90
35894;DHT22;21994;48.204;16.516;2023-07-13T08:33:01;24.40;99.90
35894;DHT22;21994;48.204;16.516;2023-07-13T08:35:28;24.60;99.90
35894;DHT22;21994;48.204;16.516;2023-07-13T08:37:53;24.80;99.90
35894;DHT22;21994;48.204;16.516;2023-07-13T08:40:19;25.30;99.90
35894;DHT22;21994;48.204;16.516;2023-07-13T08:42:53;25.70;99.90
35894;DHT22;21994;48.204;16.516;2023-07-13T08:45:30;26.10;99.90
35894;DHT22;21994;48.204;16.516;2023-07-13T08:48:05;26.20;99.90
35894;DHT22;21994;48.204;16.516;2023-07-13T08:50:38;26.10;99.90
35894;DHT22;21994;48.204;16.516;2023-07-13T08:53:27;25.80;99.90
35894;DHT22;21994;48.204;16.516;2023-07-13T08:55:57;25.50;99.90
35894;DHT22;21994;48.204;16.516;2023-07-13T08:58:24;25.30;99.90
35894;DHT22;21994;48.204;16.516;2023-07-13T09:03:36;25.20;99.90
35894;DHT22;21994;48.204;16.516;2023-07-13T09:06:10;25.30;99.90
35894;DHT22;21994;48.204;16.516;2023-07-13T09:14:15;25.50;99.90
35894;DHT22;21994;48.204;16.516;2023-07-13T09:16:43;25.30;99.90
35894;DHT22;21994;48.204;16.516;2023-07-13T09:19:13;25.80;99.90
35894;DHT22;21994;48.204;16.516;2023-07-13T09:21:43;26.60;99.90
35894;DHT22;21994;48.204;16.516;2023-07-13T09:24:53;26.60;99.90
35894;DHT22;21994;48.204;16.516;2023-07-13T09:27:23;26.40;99.90
35894;DHT22;21994;48.204;16.516;2023-07-13T09:29:57;26.30;99.90
35894;DHT22;21994;48.204;16.516;2023-07-13T09:32:30;26.50;99.90
35894;DHT22;21994;48.204;16.516;2023-07-13T09:34:57;26.90;99.90
35894;DHT22;21994;48.204;16.516;2023-07-13T09:37:24;27.70;99.50
35894;DHT22;21994;48.204;16.516;2023-07-13T09:39:54;28.20;99.10
35894;DHT22;21994;48.204;16.516;2023-07-13T09:42:22;28.60;98.10
35894;DHT22;21994;48.204;16.516;2023-07-13T09:44:55;28.70;99.90
35894;DHT22;21994;48.204;16.516;2023-07-13T09:47:27;29.00;98.70
35894;DHT22;21994;48.204;16.516;2023-07-13T09:50:08;29.40;97.00
35894;DHT22;21994;48.204;16.516;2023-07-13T09:52:40;29.80;97.40
35894;DHT22;21994;48.204;16.516;2023-07-13T09:57:52;29.60;96.00
35894;DHT22;21994;48.204;16.516;2023-07-13T10:00:22;29.50;96.30
35894;DHT22;21994;48.204;16.516;2023-07-13T10:03:03;29.80;95.50
35894;DHT22;21994;48.204;16.516;2023-07-13T10:05:49;29.90;95.80
35894;DHT22;21994;48.204;16.516;2023-07-13T10:08:17;30.10;94.90
35894;DHT22;21994;48.204;16.516;2023-07-13T10:10:46;30.20;94.50
35894;DHT22;21994;48.204;16.516;2023-07-13T10:13:52;29.30;95.50
35894;DHT22;21994;48.204;16.516;2023-07-13T10:16:25;28.80;95.50
35894;DHT22;21994;48.204;16.516;2023-07-13T10:18:57;28.90;95.90
35894;DHT22;21994;48.204;16.516;2023-07-13T10:21:28;28.40;96.30
35894;DHT22;21994;48.204;16.516;2023-07-13T10:24:02;28.70;96.70
35894;DHT22;21994;48.204;16.516;2023-07-13T10:26:35;29.60;96.30
35894;DHT22;21994;48.204;16.516;2023-07-13T10:29:04;30.40;94.90
35894;DHT22;21994;48.204;16.516;2023-07-13T10:31:33;31.00;94.30
35894;DHT22;21994;48.204;16.516;2023-07-13T10:34:00;31.20;93.70
35894;DHT22;21994;48.204;16.516;2023-07-13T10:36:34;31.20;92.70
35894;DHT22;21994;48.204;16.516;2023-07-13T10:39:19;31.40;93.00
35894;DHT22;21994;48.204;16.516;2023-07-13T10:41:47;31.50;93.40
35894;DHT22;21994;48.204;16.516;2023-07-13T10:44:24;31.40;92.30
35894;DHT22;21994;48.204;16.516;2023-07-13T10:46:55;31.20;92.20
35894;DHT22;21994;48.204;16.516;2023-07-13T10:49:23;30.30;92.20
35894;DHT22;21994;48.204;16.516;2023-07-13T10:51:50;29.70;93.30
35894;DHT22;21994;48.204;16.516;2023-07-13T10:54:19;29.70;93.50
35894;DHT22;21994;48.204;16.516;2023-07-13T10:56:50;29.70;92.20
35894;DHT22;21994;48.204;16.516;2023-07-13T10:59:20;29.40;92.40
35894;DHT22;21994;48.204;16.516;2023-07-13T11:01:55;29.20;92.60
35894;DHT22;21994;48.204;16.516;2023-07-13T11:07:51;29.60;93.50
35894;DHT22;21994;48.204;16.516;2023-07-13T11:16:14;31.30;91.90
35894;DHT22;21994;48.204;16.516;2023-07-13T11:21:31;32.20;90.60
35894;DHT22;21994;48.204;16.516;2023-07-13T11:24:33;32.00;90.30
35894;DHT22;21994;48.204;16.516;2023-07-13T11:26:54;31.80;90.20
35894;DHT22;21994;48.204;16.516;2023-07-13T11:29:24;31.60;90.50
35894;DHT22;21994;48.204;16.516;2023-07-13T11:31:55;31.40;90.10
35894;DHT22;21994;48.204;16.516;2023-07-13T11:36:59;30.20;90.70
35894;DHT22;21994;48.204;16.516;2023-07-13T11:39:35;29.80;91.70
35894;DHT22;21994;48.204;16.516;2023-07-13T11:42:05;29.70;91.10
35894;DHT22;21994;48.204;16.516;2023-07-13T11:44:33;29.60;91.00
35894;DHT22;21994;48.204;16.516;2023-07-13T11:47:00;29.60;91.60
35894;DHT22;21994;48.204;16.516;2023-07-13T11:49:43;29.40;91.60
35894;DHT22;21994;48.204;16.516;2023-07-13T11:52:14;29.30;92.70
35894;DHT22;21994;48.204;16.516;2023-07-13T11:54:54;29.40;91.20
35894;DHT22;21994;48.204;16.516;2023-07-13T11:57:25;29.50;91.10
35894;DHT22;21994;48.204;16.516;2023-07-13T11:59:56;29.40;91.50
35894;DHT22;21994;48.204;16.516;2023-07-13T12:02:34;29.60;91.30
35894;DHT22;21994;48.204;16.516;2023-07-13T12:05:03;29.60;90.80
35894;DHT22;21994;48.204;16.516;2023-07-13T12:07:31;29.60;91.40
35894;DHT22;21994;48.204;16.516;2023-07-13T12:12:56;29.60;90.50
35894;DHT22;21994;48.204;16.516;2023-07-13T12:15:41;29.60;90.70
35894;DHT22;21994;48.204;16.516;2023-07-13T12:18:19;29.50;91.20
35894;DHT22;21994;48.204;16.516;2023-07-13T12:20:47;29.70;90.30
35894;DHT22;21994;48.204;16.516;2023-07-13T12:23:24;29.50;90.30
35894;DHT22;21994;48.204;16.516;2023-07-13T12:25:55;29.60;90.10
35894;DHT22;21994;48.204;16.516;2023-07-13T12:28:30;29.70;90.80
35894;DHT22;21994;48.204;16.516;2023-07-13T12:31:03;29.70;87.80
35894;DHT22;21994;48.204;16.516;2023-07-13T12:33:32;29.40;90.10
35894;DHT22;21994;48.204;16.516;2023-07-13T12:36:02;29.30;89.40
35894;DHT22;21994;48.204;16.516;2023-07-13T12:38:30;29.10;89.30
35894;DHT22;21994;48.204;16.516;2023-07-13T12:40:56;28.90;90.00
35894;DHT22;21994;48.204;16.516;2023-07-13T12:43:23;28.70;89.20
35894;DHT22;21994;48.204;16.516;2023-07-13T12:45:57;28.40;87.70
35894;DHT22;21994;48.204;16.516;2023-07-13T12:48:25;28.40;89.70
35894;DHT22;21994;48.204;16.516;2023-07-13T12:50:51;28.60;90.40
35894;DHT22;21994;48.204;16.516;2023-07-13T12:53:20;28.70;90.50
35894;DHT22;21994;48.204;16.516;2023-07-13T12:55:52;28.70;90.80
35894;DHT22;21994;48.204;16.516;2023-07-13T12:58:22;29.00;90.00
35894;DHT22;21994;48.204;16.516;2023-07-13T13:00:55;29.20;91.10
35894;DHT22;21994;48.204;16.516;2023-07-13T13:03:26;29.40;89.10
35894;DHT22;21994;48.204;16.516;2023-07-13T13:06:43;29.50;87.70
35894;DHT22;21994;48.204;16.516;2023-07-13T13:08:48;29.40;88.70
35894;DHT22;21994;48.204;16.516;2023-07-13T13:11:15;29.80;90.50
35894;DHT22;21994;48.204;16.516;2023-07-13T13:13:42;29.80;88.60
35894;DHT22;21994;48.204;16.516;2023-07-13T13:16:10;29.80;87.70
35894;DHT22;21994;48.204;16.516;2023-07-13T13:18:43;29.60;89.70
35894;DHT22;21994;48.204;16.516;2023-07-13T13:21:10;29.40;89.40
35894;DHT22;21994;48.204;16.516;2023-07-13T13:23:36;29.40;88.30
35894;DHT22;21994;48.204;16.516;2023-07-13T13:26:02;29.30;89.70
35894;DHT22;21994;48.204;16.516;2023-07-13T13:28:28;29.40;89.20
35894;DHT22;21994;48.204;16.516;2023-07-13T13:30:57;29.30;89.80
35894;DHT22;21994;48.204;16.516;2023-07-13T13:33:28;29.20;88.80
35894;DHT22;21994;48.204;16.516;2023-07-13T13:35:56;29.10;89.30
35894;DHT22;21994;48.204;16.516;2023-07-13T13:38:25;28.90;90.20
35894;DHT22;21994;48.204;16.516;2023-07-13T13:40:52;28.70;90.10
35894;DHT22;21994;48.204;16.516;2023-07-13T13:43:22;28.60;90.30
35894;DHT22;21994;48.204;16.516;2023-07-13T13:45:57;28.40;90.30
35894;DHT22;21994;48.204;16.516;2023-07-13T13:48:34;28.20;91.20
35894;DHT22;21994;48.204;16.516;2023-07-13T13:51:03;28.20;91.30
35894;DHT22;21994;48.204;16.516;2023-07-13T13:53:37;28.20;90.80
35894;DHT22;21994;48.204;16.516;2023-07-13T13:56:04;28.10;90.70
35894;DHT22;21994;48.204;16.516;2023-07-13T13:58:33;28.10;90.60
35894;DHT22;21994;48.204;16.516;2023-07-13T14:00:59;28.00;91.10
35894;DHT22;21994;48.204;16.516;2023-07-13T14:03:26;28.10;91.50
35894;DHT22;21994;48.204;16.516;2023-07-13T14:05:53;28.10;90.80
35894;DHT22;21994;48.204;16.516;2023-07-13T14:08:20;28.20;91.50
35894;DHT22;21994;48.204;16.516;2023-07-13T14:10:47;28.20;90.80
35894;DHT22;21994;48.204;16.516;2023-07-13T14:13:22;28.20;90.80
35894;DHT22;21994;48.204;16.516;2023-07-13T14:15:54;28.10;91.10
35894;DHT22;21994;48.204;16.516;2023-07-13T14:18:20;28.00;91.60
35894;DHT22;21994;48.204;16.516;2023-07-13T14:20:46;28.10;90.70
35894;DHT22;21994;48.204;16.516;2023-07-13T14:23:13;28.00;90.50
35894;DHT22;21994;48.204;16.516;2023-07-13T14:25:41;28.00;91.20
35894;DHT22;21994;48.204;16.516;2023-07-13T14:30:47;27.60;90.80
35894;DHT22;21994;48.204;16.516;2023-07-13T14:33:13;27.40;91.40
35894;DHT22;21994;48.204;16.516;2023-07-13T14:35:39;27.40;91.90
35894;DHT22;21994;48.204;16.516;2023-07-13T14:38:11;27.30;92.10
35894;DHT22;21994;48.204;16.516;2023-07-13T14:40:39;27.30;92.10
35894;DHT22;21994;48.204;16.516;2023-07-13T14:43:08;27.20;93.30
35894;DHT22;21994;48.204;16.516;2023-07-13T14:45:36;27.20;92.50
35894;DHT22;21994;48.204;16.516;2023-07-13T14:48:16;27.00;92.60
35894;DHT22;21994;48.204;16.516;2023-07-13T14:50:46;26.90;92.70
35894;DHT22;21994;48.204;16.516;2023-07-13T14:53:15;26.90;92.70
35894;DHT22;21994;48.204;16.516;2023-07-13T14:55:40;26.60;93.10
35894;DHT22;21994;48.204;16.516;2023-07-13T14:58:08;26.50;93.00
35894;DHT22;21994;48.204;16.516;2023-07-13T15:00:33;26.50;93.20
35894;DHT22;21994;48.204;16.516;2023-07-13T15:02:59;26.40;93.70
35894;DHT22;21994;48.204;16.516;2023-07-13T15:05:27;26.40;93.40
35894;DHT22;21994;48.204;16.516;2023-07-13T15:07:56;26.40;93.30
35894;DHT22;21994;48.204;16.516;2023-07-13T15:10:28;26.20;93.30
35894;DHT22;21994;48.204;16.516;2023-07-13T15:12:58;26.20;93.50
35894;DHT22;21994;48.204;16.516;2023-07-13T15:15:26;26.20;93.00
35894;DHT22;21994;48.204;16.516;2023-07-13T15:17:53;26.20;93.40
35894;DHT22;21994;48.204;16.516;2023-07-13T15:22:48;26.30;93.80
35894;DHT22;21994;48.204;16.516;2023-07-13T15:25:18;26.30;93.20
35894;DHT22;21994;48.204;16.516;2023-07-13T15:27:48;26.50;93.20
35894;DHT22;21994;48.204;16.516;2023-07-13T15:30:14;26.40;94.20
35894;DHT22;21994;48.204;16.516;2023-07-13T15:32:45;26.30;93.40
35894;DHT22;21994;48.204;16.516;2023-07-13T15:35:16;26.20;93.60
35894;DHT22;21994;48.204;16.516;2023-07-13T15:37:43;26.20;93.40
35894;DHT22;21994;48.204;16.516;2023-07-13T15:40:10;26.10;93.70
35894;DHT22;21994;48.204;16.516;2023-07-13T15:42:37;26.00;93.70
35894;DHT22;21994;48.204;16.516;2023-07-13T15:47:43;25.90;93.60
35894;DHT22;21994;48.204;16.516;2023-07-13T15:50:43;25.90;94.10
35894;DHT22;21994;48.204;16.516;2023-07-13T15:53:08;25.90;94.40
35894;DHT22;21994;48.204;16.516;2023-07-13T15:55:37;25.90;93.80
35894;DHT22;21994;48.204;16.516;2023-07-13T15:58:04;25.80;94.10
35894;DHT22;21994;48.204;16.516;2023-07-13T16:00:30;25.80;93.90
35894;DHT22;21994;48.204;16.516;2023-07-13T16:02:55;25.70;94.10